createdAt,value
2023-01-31T00:00:11.724Z,6.36
2023-01-31T00:05:14.491Z,6.18
2023-01-31T00:10:18.673Z,6.07
2023-01-31T00:15:21.668Z,5.96
2023-01-31T00:20:24.336Z,5.86
2023-01-31T00:25:28.443Z,5.82
2023-01-31T00:30:31.014Z,5.72
2023-01-31T00:35:33.569Z,5.69
2023-01-31T00:40:37.902Z,5.55
2023-01-31T00:45:42.285Z,5.56
2023-01-31T00:50:44.840Z,5.40
2023-01-31T00:55:48.889Z,5.41
2023-01-31T01:00:51.474Z,5.29
2023-01-31T01:05:54.100Z,5.27
2023-01-31T01:10:58.174Z,5.54
2023-01-31T01:16:05.853Z,5.62
2023-01-31T01:21:09.885Z,5.61
2023-01-31T01:26:16.657Z,5.64
2023-01-31T01:31:20.763Z,5.59
2023-01-31T01:36:25.755Z,5.62
2023-01-31T01:41:29.845Z,5.50
2023-01-31T01:46:35.230Z,5.38
2023-01-31T01:51:39.809Z,5.04
2023-01-31T01:56:47.952Z,4.98
2023-01-31T02:01:51.773Z,4.89
2023-01-31T02:06:55.574Z,5.14
2023-01-31T02:12:00.182Z,5.16
2023-01-31T02:17:02.838Z,5.24
2023-01-31T02:22:15.603Z,5.21
2023-01-31T02:27:34.337Z,5.11
2023-01-31T02:33:00.028Z,5.21
2023-01-31T02:38:14.216Z,5.23
2023-01-31T02:43:27.084Z,5.27
2023-01-31T02:48:42.510Z,5.22
2023-01-31T02:53:49.277Z,5.26
2023-01-31T02:58:57.428Z,5.19
2023-01-31T03:04:05.559Z,5.08
2023-01-31T03:09:34.533Z,5.09
2023-01-31T03:14:44.393Z,4.92
2023-01-31T03:19:59.472Z,5.00
2023-01-31T03:25:07.770Z,4.98
2023-01-31T03:30:16.210Z,5.09
2023-01-31T03:35:22.465Z,4.85
2023-01-31T03:40:28.473Z,5.08
2023-01-31T03:45:37.404Z,5.07
2023-01-31T03:50:45.257Z,5.12
2023-01-31T03:55:53.244Z,5.04
2023-01-31T04:01:00.250Z,5.05
2023-01-31T04:06:05.197Z,4.86
2023-01-31T04:11:12.949Z,5.12
2023-01-31T04:16:15.919Z,5.03
2023-01-31T04:21:19.829Z,5.05
2023-01-31T04:26:22.428Z,5.11
2023-01-31T04:31:25.110Z,5.15
2023-01-31T04:36:29.121Z,5.14
2023-01-31T04:41:32.084Z,4.83
2023-01-31T04:46:34.703Z,4.93
2023-01-31T04:51:38.599Z,5.09
2023-01-31T04:56:41.202Z,5.21
2023-01-31T05:01:43.828Z,5.23
2023-01-31T05:06:47.697Z,5.26
2023-01-31T05:11:50.271Z,5.16
2023-01-31T05:16:52.960Z,5.09
2023-01-31T05:21:58.929Z,5.01
2023-01-31T05:27:03.423Z,5.15
2023-01-31T05:32:07.443Z,5.16
2023-01-31T05:37:11.650Z,5.13
2023-01-31T05:42:14.587Z,5.24
2023-01-31T05:47:17.313Z,5.32
2023-01-31T05:52:21.468Z,5.16
2023-01-31T05:57:24.004Z,5.08
2023-01-31T06:02:26.580Z,4.98
2023-01-31T06:07:30.766Z,5.14
2023-01-31T06:12:33.427Z,5.37
2023-01-31T06:17:36.483Z,5.34
2023-01-31T06:22:40.453Z,5.14
2023-01-31T06:27:43.874Z,5.24
2023-01-31T06:32:46.427Z,5.25
2023-01-31T06:37:50.832Z,5.19
2023-01-31T06:42:53.368Z,5.16
2023-01-31T06:47:56.138Z,5.41
2023-01-31T06:53:00.230Z,5.50
2023-01-31T06:58:02.793Z,5.49
2023-01-31T07:03:05.794Z,5.48
2023-01-31T07:08:09.696Z,5.55
2023-01-31T07:13:12.240Z,5.38
2023-01-31T07:18:14.820Z,5.37
2023-01-31T07:23:18.723Z,5.38
2023-01-31T07:28:21.262Z,5.27
2023-01-31T07:33:23.823Z,5.39
2023-01-31T07:38:27.716Z,5.41
2023-01-31T07:43:31.233Z,5.27
2023-01-31T07:48:34.158Z,5.72
2023-01-31T07:53:42.055Z,5.15
2023-01-31T07:58:45.931Z,5.60
2023-01-31T08:03:48.478Z,5.69
2023-01-31T08:08:52.325Z,5.62
2023-01-31T08:13:55.375Z,5.88
2023-01-31T08:18:58.067Z,5.67
2023-01-31T08:24:01.991Z,5.75
2023-01-31T08:29:04.706Z,5.58
2023-01-31T08:34:08.336Z,5.48
2023-01-31T08:39:12.836Z,5.79
2023-01-31T08:44:15.773Z,5.55
2023-01-31T08:49:18.735Z,5.81
2023-01-31T08:54:22.617Z,6.03
2023-01-31T08:59:25.171Z,5.97
2023-01-31T09:04:27.970Z,6.20
2023-01-31T09:09:31.884Z,5.99
2023-01-31T09:14:34.687Z,6.15
2023-01-31T09:19:37.417Z,6.25
2023-01-31T09:24:41.528Z,6.34
2023-01-31T09:29:44.099Z,6.38
2023-01-31T09:34:48.328Z,6.31
2023-01-31T09:39:52.322Z,6.34
2023-01-31T09:45:02.809Z,6.49
2023-01-31T09:50:10.356Z,6.44
2023-01-31T09:55:19.439Z,6.45
2023-01-31T10:00:29.163Z,6.61
2023-01-31T10:05:40.445Z,6.72
2023-01-31T10:10:49.093Z,6.66
2023-01-31T10:15:56.447Z,6.85
2023-01-31T10:21:05.403Z,6.77
2023-01-31T10:26:14.691Z,6.87
2023-01-31T10:31:29.198Z,6.85
2023-01-31T10:36:35.664Z,6.87
2023-01-31T10:42:00.991Z,7.11
2023-01-31T10:47:04.037Z,7.19
2023-01-31T10:52:15.184Z,7.35
2023-01-31T10:57:19.173Z,7.28
2023-01-31T11:02:25.200Z,7.19
2023-01-31T11:07:30.509Z,7.33
2023-01-31T11:12:44.145Z,7.72
2023-01-31T11:17:48.432Z,7.53
2023-01-31T11:22:51.866Z,7.38
2023-01-31T11:27:59.955Z,7.56
2023-01-31T11:33:03.247Z,7.35
2023-01-31T11:38:24.393Z,7.92
2023-01-31T11:43:31.734Z,7.89
2023-01-31T11:48:42.318Z,8.04
2023-01-31T11:53:49.083Z,8.21
2023-01-31T11:58:55.641Z,8.58
2023-01-31T12:04:03.615Z,8.21
2023-01-31T12:09:20.594Z,8.21
2023-01-31T12:14:25.984Z,8.10
2023-01-31T12:19:45.020Z,7.92
2023-01-31T12:25:02.535Z,8.02
2023-01-31T12:30:25.822Z,7.94
2023-01-31T12:35:40.553Z,7.98
2023-01-31T12:40:49.728Z,7.93
2023-01-31T12:46:09.780Z,7.87
2023-01-31T12:51:24.842Z,7.78
2023-01-31T12:56:51.064Z,7.71
2023-01-31T13:02:01.439Z,7.74
2023-01-31T13:07:06.943Z,7.64
2023-01-31T13:12:14.720Z,7.62
2023-01-31T13:17:25.853Z,7.61
2023-01-31T13:22:34.379Z,7.45
2023-01-31T13:27:41.812Z,7.28
2023-01-31T13:32:49.260Z,7.32
2023-01-31T13:37:54.810Z,7.34
2023-01-31T13:43:03.501Z,7.30
2023-01-31T13:48:11.546Z,7.47
2023-01-31T13:53:21.008Z,7.50
2023-01-31T13:58:26.331Z,7.50
2023-01-31T14:03:30.626Z,7.34
2023-01-31T14:08:39.998Z,7.46
2023-01-31T14:13:44.956Z,7.40
2023-01-31T14:18:48.839Z,7.52
2023-01-31T14:23:51.352Z,7.36
2023-01-31T14:28:54.260Z,7.47
2023-01-31T14:33:58.632Z,7.58
2023-01-31T14:39:29.398Z,7.57
2023-01-31T14:44:46.171Z,7.66
2023-01-31T14:50:21.920Z,7.64
2023-01-31T14:55:42.140Z,7.70
2023-01-31T15:06:31.208Z,7.77
2023-01-31T15:11:43.206Z,7.82
2023-01-31T15:16:46.162Z,7.87
2023-01-31T15:21:51.158Z,7.86
2023-01-31T15:26:55.972Z,7.94
2023-01-31T15:32:04.801Z,7.96
2023-01-31T15:37:16.438Z,7.98
2023-01-31T15:42:26.317Z,7.97
2023-01-31T15:47:29.026Z,8.08
2023-01-31T15:52:34.487Z,8.07
2023-01-31T15:57:42.345Z,8.15
2023-01-31T16:02:47.691Z,8.10
2023-01-31T16:07:50.499Z,8.05
2023-01-31T16:12:55.847Z,8.15
2023-01-31T16:18:02.468Z,8.16
2023-01-31T16:23:05.637Z,8.25
2023-01-31T16:28:13.328Z,8.26
2023-01-31T16:33:18.870Z,8.25
2023-01-31T16:38:26.682Z,8.33
2023-01-31T16:43:32.150Z,8.34
2023-01-31T16:48:36.714Z,8.34
2023-01-31T16:53:42.426Z,8.29
2023-01-31T16:58:52.114Z,8.26
2023-01-31T17:04:14.962Z,8.35
2023-01-31T17:09:22.082Z,8.77
2023-01-31T17:14:26.058Z,8.86
2023-01-31T17:19:30.318Z,8.78
2023-01-31T17:24:32.927Z,8.52
2023-01-31T17:29:36.791Z,8.69
2023-01-31T17:34:39.488Z,8.65
2023-01-31T17:39:42.094Z,8.60
2023-01-31T17:44:46.246Z,8.66
2023-01-31T17:49:48.813Z,8.73
2023-01-31T17:54:51.345Z,8.62
2023-01-31T17:59:55.293Z,8.66
2023-01-31T18:04:57.898Z,8.63
2023-01-31T18:10:00.621Z,8.61
2023-01-31T18:15:05.408Z,8.51
2023-01-31T18:20:09.013Z,8.57
2023-01-31T18:25:12.288Z,8.39
2023-01-31T18:30:16.376Z,8.44
2023-01-31T18:35:22.028Z,8.20
2023-01-31T18:40:25.185Z,8.29
2023-01-31T18:45:30.173Z,8.32
2023-01-31T18:50:32.788Z,8.30
2023-01-31T18:55:35.347Z,8.29
2023-01-31T19:00:39.592Z,8.32
2023-01-31T19:05:42.259Z,8.27
2023-01-31T19:10:44.893Z,8.27
2023-01-31T19:15:49.018Z,8.15
2023-01-31T19:20:52.019Z,8.10
2023-01-31T19:25:55.226Z,7.95
2023-01-31T19:31:04.920Z,8.06
2023-01-31T19:36:11.853Z,7.83
2023-01-31T19:41:16.914Z,8.07
2023-01-31T19:46:21.702Z,7.99
2023-01-31T19:51:25.149Z,8.02
2023-01-31T19:56:28.304Z,8.04
2023-01-31T20:01:32.764Z,7.80
2023-01-31T20:06:35.669Z,7.96
2023-01-31T20:11:38.228Z,7.97
2023-01-31T20:16:42.178Z,7.92
2023-01-31T20:21:45.484Z,7.88
2023-01-31T20:26:48.209Z,7.54
2023-01-31T20:31:52.227Z,7.78
2023-01-31T20:36:54.812Z,7.71
2023-01-31T20:41:57.821Z,7.67
2023-01-31T20:47:01.719Z,7.50
2023-01-31T20:52:04.590Z,7.55
2023-01-31T20:57:07.225Z,7.53
2023-01-31T21:02:12.216Z,7.33
2023-01-31T21:07:14.756Z,7.36
2023-01-31T21:12:17.348Z,7.42
2023-01-31T21:17:27.612Z,7.53
2023-01-31T21:22:37.308Z,7.42
2023-01-31T21:27:40.123Z,7.64
2023-01-31T21:32:44.245Z,7.46
2023-01-31T21:37:48.847Z,7.47
2023-01-31T21:42:51.985Z,7.40
2023-01-31T21:48:15.739Z,7.37
2023-01-31T21:53:18.455Z,7.17
2023-01-31T21:58:21.278Z,7.32
2023-01-31T22:03:25.155Z,7.40
2023-01-31T22:08:27.685Z,7.46
2023-01-31T22:13:31.107Z,7.35
2023-01-31T22:18:35.789Z,7.19
2023-01-31T22:23:40.156Z,7.54
2023-01-31T22:28:43.150Z,7.62
2023-01-31T22:33:47.143Z,7.55
2023-01-31T22:38:50.262Z,7.58
2023-01-31T22:43:53.812Z,7.52
2023-01-31T22:48:58.266Z,7.49
2023-01-31T22:54:01.931Z,7.56
2023-01-31T22:59:06.156Z,7.42
2023-01-31T23:04:11.831Z,7.44
2023-01-31T23:09:14.395Z,7.51
2023-01-31T23:14:16.939Z,7.47
2023-01-31T23:19:20.817Z,7.54
2023-01-31T23:24:23.374Z,7.54
2023-01-31T23:29:26.147Z,7.52
2023-01-31T23:34:30.024Z,7.40
2023-01-31T23:39:32.803Z,7.35
2023-01-31T23:44:35.339Z,7.40
2023-01-31T23:49:39.258Z,7.43
2023-01-31T23:54:41.778Z,7.41
2023-01-31T23:59:45.292Z,7.42
